sensor_id;sensor_type;location;lat;lon;timestamp;pressure;altitude;pressure_sealevel;temperature;humidity
50484;BME280;36409;52.168;20.878;2022-12-10T00:00:09;99550.11;;;-0.41;83.68
50484;BME280;36409;52.168;20.878;2022-12-10T00:02:58;99544.08;;;-0.43;83.51
50484;BME280;36409;52.168;20.878;2022-12-10T00:05:27;99545.80;;;-0.44;83.45
50484;BME280;36409;52.168;20.878;2022-12-10T00:07:56;99538.95;;;-0.43;83.56
50484;BME280;36409;52.168;20.878;2022-12-10T00:10:25;99535.54;;;-0.44;83.74
50484;BME280;36409;52.168;20.878;2022-12-10T00:12:54;99538.95;;;-0.43;83.60
50484;BME280;36409;52.168;20.878;2022-12-10T00:15:26;99535.54;;;-0.44;84.38
50484;BME280;36409;52.168;20.878;2022-12-10T00:17:55;99541.52;;;-0.43;84.05
50484;BME280;36409;52.168;20.878;2022-12-10T00:20:24;99541.52;;;-0.43;83.71
50484;BME280;36409;52.168;20.878;2022-12-10T00:22:54;99541.52;;;-0.43;83.50
50484;BME280;36409;52.168;20.878;2022-12-10T00:25:25;99544.91;;;-0.44;83.44
50484;BME280;36409;52.168;20.878;2022-12-10T00:27:55;99543.22;;;-0.45;83.72
50484;BME280;36409;52.168;20.878;2022-12-10T00:30:24;99538.92;;;-0.47;84.38
50484;BME280;36409;52.168;20.878;2022-12-10T00:32:53;99547.45;;;-0.48;84.23
50484;BME280;36409;52.168;20.878;2022-12-10T00:35:22;99543.16;;;-0.49;84.12
50484;BME280;36409;52.168;20.878;2022-12-10T00:37:50;99546.56;;;-0.48;84.01
50484;BME280;36409;52.168;20.878;2022-12-10T00:40:21;99541.44;;;-0.48;83.69
50484;BME280;36409;52.168;20.878;2022-12-10T00:42:50;99546.56;;;-0.48;84.46
50484;BME280;36409;52.168;20.878;2022-12-10T00:45:20;99542.26;;;-0.51;83.29
50484;BME280;36409;52.168;20.878;2022-12-10T00:47:49;99550.84;;;-0.49;83.68
50484;BME280;36409;52.168;20.878;2022-12-10T00:50:18;99549.12;;;-0.50;84.27
50484;BME280;36409;52.168;20.878;2022-12-10T00:52:49;99545.67;;;-0.50;83.65
50484;BME280;36409;52.168;20.878;2022-12-10T00:55:22;99547.39;;;-0.51;83.70
50484;BME280;36409;52.168;20.878;2022-12-10T00:57:50;99547.40;;;-0.49;83.69
50484;BME280;36409;52.168;20.878;2022-12-10T01:00:21;99548.28;;;-0.49;83.76
50484;BME280;36409;52.168;20.878;2022-12-10T01:02:50;99550.84;;;-0.49;83.83
50484;BME280;36409;52.168;20.878;2022-12-10T01:05:21;99552.53;;;-0.49;84.03
50484;BME280;36409;52.168;20.878;2022-12-10T01:07:51;99555.09;;;-0.49;84.16
50484;BME280;36409;52.168;20.878;2022-12-10T01:10:22;99555.92;;;-0.50;83.56
50484;BME280;36409;52.168;20.878;2022-12-10T01:12:51;99550.80;;;-0.50;84.29
50484;BME280;36409;52.168;20.878;2022-12-10T01:15:23;99540.55;;;-0.50;84.30
50484;BME280;36409;52.168;20.878;2022-12-10T01:17:57;99539.70;;;-0.51;84.49
50484;BME280;36409;52.168;20.878;2022-12-10T01:20:26;99541.36;;;-0.53;83.80
50484;BME280;36409;52.168;20.878;2022-12-10T01:22:55;99538.78;;;-0.54;83.58
50484;BME280;36409;52.168;20.878;2022-12-10T01:25:24;99531.92;;;-0.55;83.59
50484;BME280;36409;52.168;20.878;2022-12-10T01:27:53;99531.05;;;-0.56;83.90
50484;BME280;36409;52.168;20.878;2022-12-10T01:30:22;99525.90;;;-0.57;84.06
50484;BME280;36409;52.168;20.878;2022-12-10T01:32:50;99523.34;;;-0.57;83.64
50484;BME280;36409;52.168;20.878;2022-12-10T01:35:20;99525.06;;;-0.56;83.46
50484;BME280;36409;52.168;20.878;2022-12-10T01:37:49;99522.50;;;-0.56;83.82
50484;BME280;36409;52.168;20.878;2022-12-10T01:40:19;99524.22;;;-0.57;83.70
50484;BME280;36409;52.168;20.878;2022-12-10T01:42:48;99523.35;;;-0.56;84.55
50484;BME280;36409;52.168;20.878;2022-12-10T01:45:20;99514.81;;;-0.56;83.71
50484;BME280;36409;52.168;20.878;2022-12-10T01:47:51;99511.40;;;-0.57;84.02
50484;BME280;36409;52.168;20.878;2022-12-10T01:50:21;99512.25;;;-0.56;83.76
50484;BME280;36409;52.168;20.878;2022-12-10T01:52:50;99519.94;;;-0.56;83.76
50484;BME280;36409;52.168;20.878;2022-12-10T01:55:42;99516.55;;;-0.55;84.56
50484;BME280;36409;52.168;20.878;2022-12-10T01:58:15;99519.94;;;-0.56;84.36
50484;BME280;36409;52.168;20.878;2022-12-10T02:01:01;99516.53;;;-0.57;83.84
50484;BME280;36409;52.168;20.878;2022-12-10T02:03:43;99519.09;;;-0.57;84.05
50484;BME280;36409;52.168;20.878;2022-12-10T02:06:27;99521.67;;;-0.55;83.59
50484;BME280;36409;52.168;20.878;2022-12-10T02:09:07;99525.91;;;-0.56;83.74
50484;BME280;36409;52.168;20.878;2022-12-10T02:11:44;99524.22;;;-0.57;83.77
50484;BME280;36409;52.168;20.878;2022-12-10T02:14:20;99519.09;;;-0.57;84.10
50484;BME280;36409;52.168;20.878;2022-12-10T02:16:57;99513.96;;;-0.57;84.51
50484;BME280;36409;52.168;20.878;2022-12-10T02:19:38;99516.53;;;-0.57;83.85
50484;BME280;36409;52.168;20.878;2022-12-10T02:22:11;99515.64;;;-0.57;84.44
50484;BME280;36409;52.168;20.878;2022-12-10T02:24:42;99519.09;;;-0.57;83.81
50484;BME280;36409;52.168;20.878;2022-12-10T02:27:22;99523.40;;;-0.54;84.75
50484;BME280;36409;52.168;20.878;2022-12-10T02:29:55;99522.52;;;-0.55;84.01
50484;BME280;36409;52.168;20.878;2022-12-10T02:32:31;99516.53;;;-0.57;83.69
50484;BME280;36409;52.168;20.878;2022-12-10T02:35:09;99517.38;;;-0.56;84.68
50484;BME280;36409;52.168;20.878;2022-12-10T02:37:46;99512.23;;;-0.58;84.26
50484;BME280;36409;52.168;20.878;2022-12-10T02:40:20;99520.76;;;-0.59;84.30
50484;BME280;36409;52.168;20.878;2022-12-10T02:42:52;99518.15;;;-0.60;83.68
50484;BME280;36409;52.168;20.878;2022-12-10T02:45:23;99527.61;;;-0.58;84.36
50484;BME280;36409;52.168;20.878;2022-12-10T02:47:58;99525.05;;;-0.58;84.34
50484;BME280;36409;52.168;20.878;2022-12-10T02:50:34;99522.48;;;-0.58;83.83
50484;BME280;36409;52.168;20.878;2022-12-10T02:53:04;99528.45;;;-0.59;84.21
50484;BME280;36409;52.168;20.878;2022-12-10T02:55:43;99516.47;;;-0.60;84.11
50484;BME280;36409;52.168;20.878;2022-12-10T02:58:22;99517.30;;;-0.61;84.24
50484;BME280;36409;52.168;20.878;2022-12-10T03:01:02;99518.13;;;-0.62;83.92
50484;BME280;36409;52.168;20.878;2022-12-10T03:03:46;99524.98;;;-0.61;84.23
50484;BME280;36409;52.168;20.878;2022-12-10T03:06:22;99515.56;;;-0.62;83.92
50484;BME280;36409;52.168;20.878;2022-12-10T03:09:00;99513.85;;;-0.62;83.61
50484;BME280;36409;52.168;20.878;2022-12-10T03:11:31;99513.00;;;-0.62;83.72
50484;BME280;36409;52.168;20.878;2022-12-10T03:14:02;99506.16;;;-0.62;83.86
50484;BME280;36409;52.168;20.878;2022-12-10T03:16:36;99510.44;;;-0.62;84.48
50484;BME280;36409;52.168;20.878;2022-12-10T03:19:12;99513.84;;;-0.63;84.33
50484;BME280;36409;52.168;20.878;2022-12-10T03:21:48;99512.98;;;-0.64;84.38
50484;BME280;36409;52.168;20.878;2022-12-10T03:24:21;99516.41;;;-0.63;83.94
50484;BME280;36409;52.168;20.878;2022-12-10T03:26:53;99519.80;;;-0.64;84.51
50484;BME280;36409;52.168;20.878;2022-12-10T03:29:24;99515.50;;;-0.65;84.20
50484;BME280;36409;52.168;20.878;2022-12-10T03:31:55;99517.22;;;-0.66;83.88
50484;BME280;36409;52.168;20.878;2022-12-10T03:34:25;99515.50;;;-0.65;84.56
50484;BME280;36409;52.168;20.878;2022-12-10T03:36:55;99515.50;;;-0.65;84.48
50484;BME280;36409;52.168;20.878;2022-12-10T03:39:24;99516.39;;;-0.65;84.78
50484;BME280;36409;52.168;20.878;2022-12-10T03:41:54;99526.64;;;-0.65;84.38
50484;BME280;36409;52.168;20.878;2022-12-10T03:44:30;99523.20;;;-0.65;83.95
50484;BME280;36409;52.168;20.878;2022-12-10T03:46:59;99525.76;;;-0.65;84.36
50484;BME280;36409;52.168;20.878;2022-12-10T03:49:29;99524.91;;;-0.66;83.71
50484;BME280;36409;52.168;20.878;2022-12-10T03:51:58;99517.17;;;-0.67;83.63
50484;BME280;36409;52.168;20.878;2022-12-10T03:54:29;99510.34;;;-0.68;83.77
50484;BME280;36409;52.168;20.878;2022-12-10T03:57:00;99508.62;;;-0.69;83.91
50484;BME280;36409;52.168;20.878;2022-12-10T03:59:29;99515.42;;;-0.70;84.42
50484;BME280;36409;52.168;20.878;2022-12-10T04:02:01;99522.27;;;-0.70;84.00
50484;BME280;36409;52.168;20.878;2022-12-10T04:04:30;99518.81;;;-0.72;84.64
50484;BME280;36409;52.168;20.878;2022-12-10T04:06:59;99523.05;;;-0.73;83.82
50484;BME280;36409;52.168;20.878;2022-12-10T04:09:28;99524.75;;;-0.75;84.41
50484;BME280;36409;52.168;20.878;2022-12-10T04:11:58;99519.64;;;-0.73;84.45
50484;BME280;36409;52.168;20.878;2022-12-10T04:14:27;99511.10;;;-0.74;84.39
50484;BME280;36409;52.168;20.878;2022-12-10T04:17:14;99511.05;;;-0.75;84.57
50484;BME280;36409;52.168;20.878;2022-12-10T04:19:43;99517.02;;;-0.76;84.66
50484;BME280;36409;52.168;20.878;2022-12-10T04:22:12;99523.87;;;-0.75;84.28
50484;BME280;36409;52.168;20.878;2022-12-10T04:25:00;99526.44;;;-0.75;83.94
50484;BME280;36409;52.168;20.878;2022-12-10T04:27:48;99525.59;;;-0.74;83.89
50484;BME280;36409;52.168;20.878;2022-12-10T04:30:20;99521.35;;;-0.74;84.32
50484;BME280;36409;52.168;20.878;2022-12-10T04:32:49;99519.64;;;-0.73;84.37
50484;BME280;36409;52.168;20.878;2022-12-10T04:35:18;99516.24;;;-0.72;84.77
50484;BME280;36409;52.168;20.878;2022-12-10T04:37:47;99517.92;;;-0.73;83.87
50484;BME280;36409;52.168;20.878;2022-12-10T04:40:16;99512.80;;;-0.73;84.97
50484;BME280;36409;52.168;20.878;2022-12-10T04:42:47;99525.66;;;-0.71;84.57
50484;BME280;36409;52.168;20.878;2022-12-10T04:45:16;99522.22;;;-0.72;84.08
50484;BME280;36409;52.168;20.878;2022-12-10T04:50:36;99525.66;;;-0.71;84.20
50484;BME280;36409;52.168;20.878;2022-12-10T04:53:07;99528.24;;;-0.70;85.09
50484;BME280;36409;52.168;20.878;2022-12-10T04:55:36;99532.55;;;-0.67;84.20
50484;BME280;36409;52.168;20.878;2022-12-10T04:58:07;99530.88;;;-0.67;84.86
50484;BME280;36409;52.168;20.878;2022-12-10T05:00:36;99534.27;;;-0.68;84.47
50484;BME280;36409;52.168;20.878;2022-12-10T05:03:05;99536.00;;;-0.67;83.79
50484;BME280;36409;52.168;20.878;2022-12-10T05:05:35;99533.44;;;-0.67;83.83
50484;BME280;36409;52.168;20.878;2022-12-10T05:08:04;99530.89;;;-0.65;84.45
50484;BME280;36409;52.168;20.878;2022-12-10T05:10:35;99530.03;;;-0.66;84.24
50484;BME280;36409;52.168;20.878;2022-12-10T05:13:04;99530.03;;;-0.66;84.31
50484;BME280;36409;52.168;20.878;2022-12-10T05:15:33;99545.44;;;-0.64;84.50
50484;BME280;36409;52.168;20.878;2022-12-10T05:18:06;99544.60;;;-0.63;84.26
50484;BME280;36409;52.168;20.878;2022-12-10T05:20:34;99547.18;;;-0.62;84.46
50484;BME280;36409;52.168;20.878;2022-12-10T05:23:03;99550.61;;;-0.63;84.69
50484;BME280;36409;52.168;20.878;2022-12-10T05:26:00;99548.05;;;-0.63;84.98
50484;BME280;36409;52.168;20.878;2022-12-10T05:28:31;99552.30;;;-0.62;84.06
50484;BME280;36409;52.168;20.878;2022-12-10T05:31:25;99563.42;;;-0.63;84.76
50484;BME280;36409;52.168;20.878;2022-12-10T05:33:57;99568.57;;;-0.61;84.54
50484;BME280;36409;52.168;20.878;2022-12-10T05:36:28;99561.73;;;-0.60;83.95
50484;BME280;36409;52.168;20.878;2022-12-10T05:39:06;99560.88;;;-0.61;83.93
50484;BME280;36409;52.168;20.878;2022-12-10T05:41:37;99567.69;;;-0.62;83.85
50484;BME280;36409;52.168;20.878;2022-12-10T05:44:09;99557.44;;;-0.62;84.60
50484;BME280;36409;52.168;20.878;2022-12-10T05:46:42;99563.44;;;-0.61;83.82
50484;BME280;36409;52.168;20.878;2022-12-10T05:49:11;99560.00;;;-0.62;84.55
50484;BME280;36409;52.168;20.878;2022-12-10T05:51:40;99555.75;;;-0.61;84.74
50484;BME280;36409;52.168;20.878;2022-12-10T05:54:10;99551.47;;;-0.60;84.80
50484;BME280;36409;52.168;20.878;2022-12-10T05:56:39;99551.47;;;-0.60;84.26
50484;BME280;36409;52.168;20.878;2022-12-10T05:59:08;99560.05;;;-0.60;84.68
50484;BME280;36409;52.168;20.878;2022-12-10T06:01:44;99559.13;;;-0.64;84.59
50484;BME280;36409;52.168;20.878;2022-12-10T06:04:13;99567.66;;;-0.65;84.72
50484;BME280;36409;52.168;20.878;2022-12-10T06:06:46;99565.05;;;-0.66;84.56
50484;BME280;36409;52.168;20.878;2022-12-10T06:09:16;99564.20;;;-0.67;84.39
50484;BME280;36409;52.168;20.878;2022-12-10T06:11:47;99562.48;;;-0.66;84.95
50484;BME280;36409;52.168;20.878;2022-12-10T06:14:18;99563.36;;;-0.66;84.72
50484;BME280;36409;52.168;20.878;2022-12-10T06:16:49;99569.34;;;-0.65;84.65
50484;BME280;36409;52.168;20.878;2022-12-10T06:19:20;99566.78;;;-0.65;84.13
50484;BME280;36409;52.168;20.878;2022-12-10T06:21:49;99570.22;;;-0.65;84.65
50484;BME280;36409;52.168;20.878;2022-12-10T06:24:17;99574.52;;;-0.64;84.59
50484;BME280;36409;52.168;20.878;2022-12-10T06:26:54;99577.08;;;-0.64;84.87
50484;BME280;36409;52.168;20.878;2022-12-10T06:29:24;99583.04;;;-0.65;83.81
50484;BME280;36409;52.168;20.878;2022-12-10T06:31:57;99584.72;;;-0.65;84.23
50484;BME280;36409;52.168;20.878;2022-12-10T06:34:26;99588.11;;;-0.66;84.64
50484;BME280;36409;52.168;20.878;2022-12-10T06:36:55;99592.38;;;-0.68;84.57
50484;BME280;36409;52.168;20.878;2022-12-10T06:39:25;99594.89;;;-0.70;84.70
50484;BME280;36409;52.168;20.878;2022-12-10T06:41:57;99597.45;;;-0.70;84.04
50484;BME280;36409;52.168;20.878;2022-12-10T06:44:27;99599.16;;;-0.70;84.03
50484;BME280;36409;52.168;20.878;2022-12-10T06:46:56;99602.56;;;-0.71;84.37
50484;BME280;36409;52.168;20.878;2022-12-10T06:49:25;99606.78;;;-0.73;84.40
50484;BME280;36409;52.168;20.878;2022-12-10T06:51:54;99609.34;;;-0.73;83.90
50484;BME280;36409;52.168;20.878;2022-12-10T06:54:32;99613.63;;;-0.74;84.24
50484;BME280;36409;52.168;20.878;2022-12-10T06:57:02;99605.05;;;-0.74;84.96
50484;BME280;36409;52.168;20.878;2022-12-10T06:59:30;99610.18;;;-0.74;84.64
50484;BME280;36409;52.168;20.878;2022-12-10T07:02:00;99600.77;;;-0.75;84.15
50484;BME280;36409;52.168;20.878;2022-12-10T07:04:33;99601.57;;;-0.78;84.58
50484;BME280;36409;52.168;20.878;2022-12-10T07:07:04;99602.42;;;-0.78;84.72
50484;BME280;36409;52.168;20.878;2022-12-10T07:09:36;99602.42;;;-0.78;84.65
50484;BME280;36409;52.168;20.878;2022-12-10T07:12:09;99601.57;;;-0.78;84.95
50484;BME280;36409;52.168;20.878;2022-12-10T07:14:39;99598.13;;;-0.79;84.09
50484;BME280;36409;52.168;20.878;2022-12-10T07:17:08;99603.30;;;-0.77;84.38
50484;BME280;36409;52.168;20.878;2022-12-10T07:19:40;99603.25;;;-0.79;84.11
50484;BME280;36409;52.168;20.878;2022-12-10T07:22:09;99598.13;;;-0.79;85.04
50484;BME280;36409;52.168;20.878;2022-12-10T07:24:39;99604.98;;;-0.78;85.06
50484;BME280;36409;52.168;20.878;2022-12-10T07:27:08;99605.03;;;-0.76;84.75
50484;BME280;36409;52.168;20.878;2022-12-10T07:29:37;99598.20;;;-0.75;84.23
50484;BME280;36409;52.168;20.878;2022-12-10T07:32:11;99600.77;;;-0.75;84.48
50484;BME280;36409;52.168;20.878;2022-12-10T07:34:40;99605.05;;;-0.74;84.56
50484;BME280;36409;52.168;20.878;2022-12-10T07:37:09;99611.08;;;-0.72;84.98
50484;BME280;36409;52.168;20.878;2022-12-10T07:39:40;99608.52;;;-0.72;84.77
50484;BME280;36409;52.168;20.878;2022-12-10T07:42:11;99614.55;;;-0.70;84.62
50484;BME280;36409;52.168;20.878;2022-12-10T07:44:40;99614.56;;;-0.69;84.22
50484;BME280;36409;52.168;20.878;2022-12-10T07:47:18;99618.86;;;-0.68;84.51
50484;BME280;36409;52.168;20.878;2022-12-10T07:49:48;99618.03;;;-0.67;83.86
50484;BME280;36409;52.168;20.878;2022-12-10T07:52:20;99630.02;;;-0.66;84.08
50484;BME280;36409;52.168;20.878;2022-12-10T07:54:51;99619.77;;;-0.64;84.76
50484;BME280;36409;52.168;20.878;2022-12-10T07:57:21;99613.81;;;-0.63;84.88
50484;BME280;36409;52.168;20.878;2022-12-10T07:59:53;99605.30;;;-0.62;84.50
50484;BME280;36409;52.168;20.878;2022-12-10T08:02:21;99600.17;;;-0.62;84.30
50484;BME280;36409;52.168;20.878;2022-12-10T08:04:50;99603.65;;;-0.58;83.81
50484;BME280;36409;52.168;20.878;2022-12-10T08:07:20;99604.53;;;-0.58;84.23
50484;BME280;36409;52.168;20.878;2022-12-10T08:09:49;99600.25;;;-0.57;84.69
50484;BME280;36409;52.168;20.878;2022-12-10T08:12:22;99601.13;;;-0.57;84.70
50484;BME280;36409;52.168;20.878;2022-12-10T08:14:51;99606.27;;;-0.57;85.05
50484;BME280;36409;52.168;20.878;2022-12-10T08:17:21;99608.84;;;-0.55;84.15
50484;BME280;36409;52.168;20.878;2022-12-10T08:19:50;99607.19;;;-0.52;84.23
50484;BME280;36409;52.168;20.878;2022-12-10T08:22:22;99605.52;;;-0.51;84.37
50484;BME280;36409;52.168;20.878;2022-12-10T08:24:51;99602.08;;;-0.50;84.19
50484;BME280;36409;52.168;20.878;2022-12-10T08:27:23;99604.70;;;-0.49;84.96
50484;BME280;36409;52.168;20.878;2022-12-10T08:29:52;99598.73;;;-0.48;84.21
50484;BME280;36409;52.168;20.878;2022-12-10T08:32:22;99603.03;;;-0.47;84.54
50484;BME280;36409;52.168;20.878;2022-12-10T08:34:51;99603.86;;;-0.48;84.29
50484;BME280;36409;52.168;20.878;2022-12-10T08:37:22;99607.28;;;-0.47;84.62
50484;BME280;36409;52.168;20.878;2022-12-10T08:39:51;99610.72;;;-0.47;84.04
50484;BME280;36409;52.168;20.878;2022-12-10T08:42:22;99614.13;;;-0.46;83.99
50484;BME280;36409;52.168;20.878;2022-12-10T08:44:54;99609.89;;;-0.45;84.44
50484;BME280;36409;52.168;20.878;2022-12-10T08:47:24;99612.47;;;-0.44;84.75
50484;BME280;36409;52.168;20.878;2022-12-10T08:49:53;99613.32;;;-0.43;84.46
50484;BME280;36409;52.168;20.878;2022-12-10T08:52:22;99614.20;;;-0.43;84.13
50484;BME280;36409;52.168;20.878;2022-12-10T08:54:51;99612.48;;;-0.42;85.08
50484;BME280;36409;52.168;20.878;2022-12-10T08:57:23;99611.66;;;-0.41;85.10
50484;BME280;36409;52.168;20.878;2022-12-10T09:00:03;99618.52;;;-0.40;83.96
50484;BME280;36409;52.168;20.878;2022-12-10T09:02:32;99611.72;;;-0.38;84.68
50484;BME280;36409;52.168;20.878;2022-12-10T09:05:01;99613.45;;;-0.37;84.23
50484;BME280;36409;52.168;20.878;2022-12-10T09:07:30;99623.79;;;-0.33;85.04
50484;BME280;36409;52.168;20.878;2022-12-10T09:09:59;99633.23;;;-0.30;84.69
50484;BME280;36409;52.168;20.878;2022-12-10T09:12:33;99631.56;;;-0.28;84.92
50484;BME280;36409;52.168;20.878;2022-12-10T09:15:09;99625.60;;;-0.27;84.71
50484;BME280;36409;52.168;20.878;2022-12-10T09:17:40;99628.18;;;-0.25;84.15
50484;BME280;36409;52.168;20.878;2022-12-10T09:20:10;99629.96;;;-0.23;84.97
50484;BME280;36409;52.168;20.878;2022-12-10T09:22:40;99622.27;;;-0.23;84.14
50484;BME280;36409;52.168;20.878;2022-12-10T09:25:09;99626.58;;;-0.20;84.39
50484;BME280;36409;52.168;20.878;2022-12-10T09:27:38;99625.69;;;-0.21;84.80
50484;BME280;36409;52.168;20.878;2022-12-10T09:30:12;99624.84;;;-0.21;83.98
50484;BME280;36409;52.168;20.878;2022-12-10T09:32:41;99619.73;;;-0.20;84.85
50484;BME280;36409;52.168;20.878;2022-12-10T09:35:12;99614.59;;;-0.20;83.96
50484;BME280;36409;52.168;20.878;2022-12-10T09:37:41;99609.53;;;-0.17;83.85
50484;BME280;36409;52.168;20.878;2022-12-10T09:40:15;99608.70;;;-0.14;84.35
50484;BME280;36409;52.168;20.878;2022-12-10T09:42:51;99611.28;;;-0.14;84.87
50484;BME280;36409;52.168;20.878;2022-12-10T09:45:29;99616.45;;;-0.12;83.98
50484;BME280;36409;52.168;20.878;2022-12-10T09:48:04;99613.00;;;-0.13;84.35
50484;BME280;36409;52.168;20.878;2022-12-10T09:50:48;99605.36;;;-0.11;84.03
50484;BME280;36409;52.168;20.878;2022-12-10T09:53:20;99607.92;;;-0.11;84.52
50484;BME280;36409;52.168;20.878;2022-12-10T09:55:52;99612.19;;;-0.10;84.72
50484;BME280;36409;52.168;20.878;2022-12-10T09:58:26;99626.73;;;-0.11;84.79
50484;BME280;36409;52.168;20.878;2022-12-10T10:01:00;99625.00;;;-0.12;84.83
50484;BME280;36409;52.168;20.878;2022-12-10T10:03:34;99631.02;;;-0.11;84.08
50484;BME280;36409;52.168;20.878;2022-12-10T10:06:10;99639.58;;;-0.09;84.05
50484;BME280;36409;52.168;20.878;2022-12-10T10:08:52;99633.61;;;-0.08;84.02
50484;BME280;36409;52.168;20.878;2022-12-10T10:11:29;99640.45;;;-0.09;84.48
50484;BME280;36409;52.168;20.878;2022-12-10T10:14:05;99632.77;;;-0.09;84.63
50484;BME280;36409;52.168;20.878;2022-12-10T10:16:40;99634.51;;;-0.06;84.50
50484;BME280;36409;52.168;20.878;2022-12-10T10:19:15;99634.52;;;-0.05;84.48
50484;BME280;36409;52.168;20.878;2022-12-10T10:21:47;99632.90;;;-0.01;84.58
50484;BME280;36409;52.168;20.878;2022-12-10T10:24:18;99626.93;;;0.00;84.79
50484;BME280;36409;52.168;20.878;2022-12-10T10:26:53;99634.66;;;0.03;84.71
50484;BME280;36409;52.168;20.878;2022-12-10T10:29:25;99636.38;;;0.03;84.77
50484;BME280;36409;52.168;20.878;2022-12-10T10:32:15;99634.70;;;0.05;84.54
50484;BME280;36409;52.168;20.878;2022-12-10T10:34:46;99632.16;;;0.08;84.77
50484;BME280;36409;52.168;20.878;2022-12-10T10:37:22;99627.08;;;0.09;84.45
50484;BME280;36409;52.168;20.878;2022-12-10T10:39:53;99617.66;;;0.10;84.86
50484;BME280;36409;52.168;20.878;2022-12-10T10:42:30;99622.80;;;0.10;84.25
50484;BME280;36409;52.168;20.878;2022-12-10T10:48:05;99609.97;;;0.11;84.00
50484;BME280;36409;52.168;20.878;2022-12-10T10:50:39;99605.70;;;0.10;83.98
50484;BME280;36409;52.168;20.878;2022-12-10T10:53:30;99602.27;;;0.11;84.37
50484;BME280;36409;52.168;20.878;2022-12-10T10:56:16;99590.32;;;0.12;84.66
50484;BME280;36409;52.168;20.878;2022-12-10T10:58:57;99593.80;;;0.15;84.31
50484;BME280;36409;52.168;20.878;2022-12-10T11:01:42;99583.58;;;0.19;83.82
50484;BME280;36409;52.168;20.878;2022-12-10T11:04:13;99586.20;;;0.22;84.56
50484;BME280;36409;52.168;20.878;2022-12-10T11:06:44;99583.66;;;0.25;84.02
50484;BME280;36409;52.168;20.878;2022-12-10T11:09:20;99581.14;;;0.26;84.42
50484;BME280;36409;52.168;20.878;2022-12-10T11:12:00;99578.57;;;0.26;84.75
50484;BME280;36409;52.168;20.878;2022-12-10T11:14:32;99583.66;;;0.25;84.04
50484;BME280;36409;52.168;20.878;2022-12-10T11:17:21;99581.94;;;0.24;83.59
50484;BME280;36409;52.168;20.878;2022-12-10T11:19:57;99569.94;;;0.23;83.86
50484;BME280;36409;52.168;20.878;2022-12-10T11:22:34;99563.11;;;0.23;84.00
50484;BME280;36409;52.168;20.878;2022-12-10T11:25:10;99555.47;;;0.26;84.24
50484;BME280;36409;52.168;20.878;2022-12-10T11:27:51;99547.77;;;0.28;84.01
50484;BME280;36409;52.168;20.878;2022-12-10T11:30:25;99543.48;;;0.28;83.99
50484;BME280;36409;52.168;20.878;2022-12-10T11:35:53;99547.77;;;0.28;84.63
50484;BME280;36409;52.168;20.878;2022-12-10T11:38:32;99552.97;;;0.31;84.54
50484;BME280;36409;52.168;20.878;2022-12-10T11:41:13;99551.23;;;0.30;83.81
50484;BME280;36409;52.168;20.878;2022-12-10T11:44:08;99553.76;;;0.28;84.44
50484;BME280;36409;52.168;20.878;2022-12-10T11:46:55;99550.34;;;0.28;83.68
50484;BME280;36409;52.168;20.878;2022-12-10T11:49:38;99558.05;;;0.28;84.05
50484;BME280;36409;52.168;20.878;2022-12-10T11:52:14;99557.20;;;0.29;83.75
50484;BME280;36409;52.168;20.878;2022-12-10T11:54:56;99561.46;;;0.28;83.91
50484;BME280;36409;52.168;20.878;2022-12-10T11:57:43;99568.33;;;0.29;84.57
50484;BME280;36409;52.168;20.878;2022-12-10T12:00:20;99576.91;;;0.30;83.59
50484;BME280;36409;52.168;20.878;2022-12-10T12:03:08;99581.16;;;0.28;83.97
50484;BME280;36409;52.168;20.878;2022-12-10T12:06:10;99577.73;;;0.27;84.26
50484;BME280;36409;52.168;20.878;2022-12-10T12:08:52;99587.95;;;0.24;84.57
50484;BME280;36409;52.168;20.878;2022-12-10T12:11:36;99587.06;;;0.24;84.08
50484;BME280;36409;52.168;20.878;2022-12-10T12:14:21;99591.35;;;0.23;84.14
50484;BME280;36409;52.168;20.878;2022-12-10T12:17:00;99593.02;;;0.20;83.86
50484;BME280;36409;52.168;20.878;2022-12-10T12:19:33;99594.70;;;0.19;84.00
50484;BME280;36409;52.168;20.878;2022-12-10T12:22:14;99589.55;;;0.16;84.15
50484;BME280;36409;52.168;20.878;2022-12-10T12:24:46;99586.08;;;0.14;84.13
50484;BME280;36409;52.168;20.878;2022-12-10T12:27:23;99595.47;;;0.13;84.06
50484;BME280;36409;52.168;20.878;2022-12-10T12:30:11;99597.19;;;0.13;83.78
50484;BME280;36409;52.168;20.878;2022-12-10T12:32:49;99594.63;;;0.14;83.94
50484;BME280;36409;52.168;20.878;2022-12-10T12:35:27;99598.08;;;0.15;84.50
50484;BME280;36409;52.168;20.878;2022-12-10T12:38:06;99592.11;;;0.16;84.35
50484;BME280;36409;52.168;20.878;2022-12-10T12:40:48;99592.11;;;0.16;84.48
50484;BME280;36409;52.168;20.878;2022-12-10T12:43:24;99592.95;;;0.17;84.26
50484;BME280;36409;52.168;20.878;2022-12-10T12:45:56;99601.51;;;0.17;83.79
50484;BME280;36409;52.168;20.878;2022-12-10T12:48:31;99599.81;;;0.16;83.86
50484;BME280;36409;52.168;20.878;2022-12-10T12:51:07;99607.45;;;0.13;83.66
50484;BME280;36409;52.168;20.878;2022-12-10T12:53:39;99612.53;;;0.10;84.03
50484;BME280;36409;52.168;20.878;2022-12-10T12:56:20;99608.23;;;0.09;83.71
50484;BME280;36409;52.168;20.878;2022-12-10T12:59:01;99614.24;;;0.09;84.40
50484;BME280;36409;52.168;20.878;2022-12-10T13:01:43;99615.98;;;0.10;84.36
50484;BME280;36409;52.168;20.878;2022-12-10T13:04:18;99622.80;;;0.10;84.30
50484;BME280;36409;52.168;20.878;2022-12-10T13:09:49;99631.38;;;0.10;84.21
50484;BME280;36409;52.168;20.878;2022-12-10T13:12:28;99634.78;;;0.09;83.63
50484;BME280;36409;52.168;20.878;2022-12-10T13:15:16;99632.16;;;0.08;83.88
50484;BME280;36409;52.168;20.878;2022-12-10T13:18:18;99638.95;;;0.04;83.38
50484;BME280;36409;52.168;20.878;2022-12-10T13:20:52;99639.79;;;0.03;83.73
50484;BME280;36409;52.168;20.878;2022-12-10T13:23:51;99642.36;;;0.03;83.44
50484;BME280;36409;52.168;20.878;2022-12-10T13:26:29;99646.64;;;0.03;84.03
50484;BME280;36409;52.168;20.878;2022-12-10T13:29:12;99646.67;;;0.06;84.28
50484;BME280;36409;52.168;20.878;2022-12-10T13:32:15;99644.92;;;0.03;83.25
50484;BME280;36409;52.168;20.878;2022-12-10T13:34:45;99635.49;;;0.02;84.30
50484;BME280;36409;52.168;20.878;2022-12-10T13:37:29;99641.52;;;0.04;83.49